sensor_id;sensor_type;location;lat;lon;timestamp;P1;durP1;ratioP1;P2;durP2;ratioP2
17310;SDS011;8773;43.300;0.394;2023-04-01T00:00:53;13.63;;;4.60;;
17310;SDS011;8773;43.300;0.394;2023-04-01T00:03:23;17.07;;;4.90;;
17310;SDS011;8773;43.300;0.394;2023-04-01T00:05:54;16.20;;;4.97;;
17310;SDS011;8773;43.300;0.394;2023-04-01T00:08:24;14.57;;;4.43;;
17310;SDS011;8773;43.300;0.394;2023-04-01T00:10:53;16.13;;;5.03;;
17310;SDS011;8773;43.300;0.394;2023-04-01T00:13:21;17.30;;;4.50;;
17310;SDS011;8773;43.300;0.394;2023-04-01T00:15:49;10.60;;;3.97;;
17310;SDS011;8773;43.300;0.394;2023-04-01T00:18:17;14.93;;;4.40;;
17310;SDS011;8773;43.300;0.394;2023-04-01T00:20:46;14.77;;;4.43;;
17310;SDS011;8773;43.300;0.394;2023-04-01T00:23:15;16.63;;;4.60;;
17310;SDS011;8773;43.300;0.394;2023-04-01T00:25:45;13.83;;;4.43;;
17310;SDS011;8773;43.300;0.394;2023-04-01T00:28:14;15.97;;;5.17;;
17310;SDS011;8773;43.300;0.394;2023-04-01T00:30:45;19.53;;;5.40;;
17310;SDS011;8773;43.300;0.394;2023-04-01T00:33:15;18.17;;;5.10;;
17310;SDS011;8773;43.300;0.394;2023-04-01T00:35:44;21.13;;;5.20;;
17310;SDS011;8773;43.300;0.394;2023-04-01T00:38:12;17.60;;;5.03;;
17310;SDS011;8773;43.300;0.394;2023-04-01T00:40:41;15.90;;;5.17;;
17310;SDS011;8773;43.300;0.394;2023-04-01T00:43:13;18.90;;;5.43;;
17310;SDS011;8773;43.300;0.394;2023-04-01T00:45:44;16.30;;;4.80;;
17310;SDS011;8773;43.300;0.394;2023-04-01T00:48:14;15.93;;;5.47;;
17310;SDS011;8773;43.300;0.394;2023-04-01T00:50:46;19.27;;;4.90;;
17310;SDS011;8773;43.300;0.394;2023-04-01T00:53:18;15.43;;;4.63;;
17310;SDS011;8773;43.300;0.394;2023-04-01T00:55:49;17.90;;;4.70;;
17310;SDS011;8773;43.300;0.394;2023-04-01T00:58:23;16.50;;;4.33;;
17310;SDS011;8773;43.300;0.394;2023-04-01T01:00:54;16.87;;;5.07;;
17310;SDS011;8773;43.300;0.394;2023-04-01T01:03:22;15.23;;;4.90;;
17310;SDS011;8773;43.300;0.394;2023-04-01T01:08:54;22.33;;;4.60;;
17310;SDS011;8773;43.300;0.394;2023-04-01T01:11:35;18.13;;;4.57;;
17310;SDS011;8773;43.300;0.394;2023-04-01T01:14:12;18.10;;;4.93;;
17310;SDS011;8773;43.300;0.394;2023-04-01T01:16:51;23.63;;;5.30;;
17310;SDS011;8773;43.300;0.394;2023-04-01T01:22:29;16.20;;;4.47;;
17310;SDS011;8773;43.300;0.394;2023-04-01T01:25:16;18.70;;;4.93;;
17310;SDS011;8773;43.300;0.394;2023-04-01T01:27:54;17.23;;;4.80;;
17310;SDS011;8773;43.300;0.394;2023-04-01T01:30:36;14.53;;;4.73;;
17310;SDS011;8773;43.300;0.394;2023-04-01T01:33:13;19.50;;;6.30;;
17310;SDS011;8773;43.300;0.394;2023-04-01T01:35:58;22.80;;;5.37;;
17310;SDS011;8773;43.300;0.394;2023-04-01T01:38:30;25.53;;;5.77;;
17310;SDS011;8773;43.300;0.394;2023-04-01T01:41:01;17.50;;;4.60;;
17310;SDS011;8773;43.300;0.394;2023-04-01T01:43:32;16.73;;;4.73;;
17310;SDS011;8773;43.300;0.394;2023-04-01T01:46:05;21.43;;;4.80;;
17310;SDS011;8773;43.300;0.394;2023-04-01T01:48:38;17.47;;;5.03;;
17310;SDS011;8773;43.300;0.394;2023-04-01T01:51:10;21.33;;;5.53;;
17310;SDS011;8773;43.300;0.394;2023-04-01T01:53:38;17.30;;;4.70;;
17310;SDS011;8773;43.300;0.394;2023-04-01T01:56:06;21.80;;;5.53;;
17310;SDS011;8773;43.300;0.394;2023-04-01T01:58:35;18.23;;;5.17;;
17310;SDS011;8773;43.300;0.394;2023-04-01T02:01:08;19.50;;;4.40;;
17310;SDS011;8773;43.300;0.394;2023-04-01T02:03:41;20.80;;;6.07;;
17310;SDS011;8773;43.300;0.394;2023-04-01T02:06:15;20.90;;;5.03;;
17310;SDS011;8773;43.300;0.394;2023-04-01T02:08:47;18.97;;;5.10;;
17310;SDS011;8773;43.300;0.394;2023-04-01T02:11:20;14.13;;;5.00;;
17310;SDS011;8773;43.300;0.394;2023-04-01T02:13:55;20.50;;;5.67;;
17310;SDS011;8773;43.300;0.394;2023-04-01T02:16:31;21.80;;;5.07;;
17310;SDS011;8773;43.300;0.394;2023-04-01T02:19:02;16.60;;;4.90;;
17310;SDS011;8773;43.300;0.394;2023-04-01T02:21:38;21.17;;;5.37;;
17310;SDS011;8773;43.300;0.394;2023-04-01T02:24:10;16.13;;;5.13;;
17310;SDS011;8773;43.300;0.394;2023-04-01T02:26:40;19.50;;;5.07;;
17310;SDS011;8773;43.300;0.394;2023-04-01T02:29:09;14.80;;;4.67;;
17310;SDS011;8773;43.300;0.394;2023-04-01T02:31:39;18.67;;;4.70;;
17310;SDS011;8773;43.300;0.394;2023-04-01T02:34:09;18.60;;;4.93;;
17310;SDS011;8773;43.300;0.394;2023-04-01T02:36:38;20.57;;;4.90;;
17310;SDS011;8773;43.300;0.394;2023-04-01T02:39:07;16.87;;;4.90;;
17310;SDS011;8773;43.300;0.394;2023-04-01T02:41:38;17.87;;;5.50;;
17310;SDS011;8773;43.300;0.394;2023-04-01T02:44:09;21.53;;;5.07;;
17310;SDS011;8773;43.300;0.394;2023-04-01T02:46:38;16.73;;;5.17;;
17310;SDS011;8773;43.300;0.394;2023-04-01T02:49:06;24.20;;;5.30;;
17310;SDS011;8773;43.300;0.394;2023-04-01T02:51:34;20.57;;;5.47;;
17310;SDS011;8773;43.300;0.394;2023-04-01T02:54:03;18.57;;;5.20;;
17310;SDS011;8773;43.300;0.394;2023-04-01T02:56:31;17.03;;;5.23;;
17310;SDS011;8773;43.300;0.394;2023-04-01T02:58:59;18.70;;;4.77;;
17310;SDS011;8773;43.300;0.394;2023-04-01T03:01:27;21.67;;;5.70;;
17310;SDS011;8773;43.300;0.394;2023-04-01T03:03:58;18.33;;;5.00;;
17310;SDS011;8773;43.300;0.394;2023-04-01T03:06:26;15.47;;;4.20;;
17310;SDS011;8773;43.300;0.394;2023-04-01T03:08:54;14.80;;;4.50;;
17310;SDS011;8773;43.300;0.394;2023-04-01T03:11:23;15.90;;;4.63;;
17310;SDS011;8773;43.300;0.394;2023-04-01T03:13:52;15.30;;;4.73;;
17310;SDS011;8773;43.300;0.394;2023-04-01T03:16:20;13.83;;;4.77;;
17310;SDS011;8773;43.300;0.394;2023-04-01T03:18:48;16.20;;;4.20;;
17310;SDS011;8773;43.300;0.394;2023-04-01T03:21:19;14.30;;;4.33;;
17310;SDS011;8773;43.300;0.394;2023-04-01T03:23:48;14.53;;;4.40;;
17310;SDS011;8773;43.300;0.394;2023-04-01T03:26:16;17.63;;;5.07;;
17310;SDS011;8773;43.300;0.394;2023-04-01T03:28:46;16.27;;;4.33;;
17310;SDS011;8773;43.300;0.394;2023-04-01T03:31:14;12.57;;;4.40;;
17310;SDS011;8773;43.300;0.394;2023-04-01T03:33:43;18.63;;;4.27;;
17310;SDS011;8773;43.300;0.394;2023-04-01T03:36:11;12.40;;;4.30;;
17310;SDS011;8773;43.300;0.394;2023-04-01T03:38:39;18.07;;;5.20;;
17310;SDS011;8773;43.300;0.394;2023-04-01T03:41:11;15.97;;;4.70;;
17310;SDS011;8773;43.300;0.394;2023-04-01T03:43:40;13.87;;;4.47;;
17310;SDS011;8773;43.300;0.394;2023-04-01T03:46:09;16.33;;;4.30;;
17310;SDS011;8773;43.300;0.394;2023-04-01T03:48:40;20.07;;;5.23;;
17310;SDS011;8773;43.300;0.394;2023-04-01T03:51:08;17.77;;;4.33;;
17310;SDS011;8773;43.300;0.394;2023-04-01T03:53:39;14.87;;;4.17;;
17310;SDS011;8773;43.300;0.394;2023-04-01T03:56:07;12.37;;;4.87;;
17310;SDS011;8773;43.300;0.394;2023-04-01T03:58:36;13.30;;;4.27;;
17310;SDS011;8773;43.300;0.394;2023-04-01T04:01:14;15.13;;;4.67;;
17310;SDS011;8773;43.300;0.394;2023-04-01T04:03:43;15.47;;;4.83;;
17310;SDS011;8773;43.300;0.394;2023-04-01T04:06:12;15.87;;;4.43;;
17310;SDS011;8773;43.300;0.394;2023-04-01T04:08:41;11.47;;;3.83;;
17310;SDS011;8773;43.300;0.394;2023-04-01T04:11:09;15.27;;;4.33;;
17310;SDS011;8773;43.300;0.394;2023-04-01T04:13:37;18.50;;;5.00;;
17310;SDS011;8773;43.300;0.394;2023-04-01T04:16:05;14.43;;;4.00;;
17310;SDS011;8773;43.300;0.394;2023-04-01T04:18:35;18.40;;;5.13;;
17310;SDS011;8773;43.300;0.394;2023-04-01T04:21:03;12.83;;;4.23;;
17310;SDS011;8773;43.300;0.394;2023-04-01T04:23:31;14.10;;;4.73;;
17310;SDS011;8773;43.300;0.394;2023-04-01T04:26:01;14.53;;;4.43;;
17310;SDS011;8773;43.300;0.394;2023-04-01T04:28:31;14.50;;;4.17;;
17310;SDS011;8773;43.300;0.394;2023-04-01T04:31:00;17.13;;;5.10;;
17310;SDS011;8773;43.300;0.394;2023-04-01T04:33:31;16.83;;;3.87;;
17310;SDS011;8773;43.300;0.394;2023-04-01T04:36:01;17.03;;;5.13;;
17310;SDS011;8773;43.300;0.394;2023-04-01T04:38:30;13.53;;;5.27;;
17310;SDS011;8773;43.300;0.394;2023-04-01T04:40:58;18.00;;;4.67;;
17310;SDS011;8773;43.300;0.394;2023-04-01T04:43:26;17.70;;;5.30;;
17310;SDS011;8773;43.300;0.394;2023-04-01T04:45:54;17.43;;;4.47;;
17310;SDS011;8773;43.300;0.394;2023-04-01T04:48:22;16.37;;;4.23;;
17310;SDS011;8773;43.300;0.394;2023-04-01T04:50:50;18.67;;;4.97;;
17310;SDS011;8773;43.300;0.394;2023-04-01T04:53:19;19.23;;;5.17;;
17310;SDS011;8773;43.300;0.394;2023-04-01T04:55:48;12.80;;;4.77;;
17310;SDS011;8773;43.300;0.394;2023-04-01T04:58:17;18.53;;;4.80;;
17310;SDS011;8773;43.300;0.394;2023-04-01T05:00:46;16.57;;;4.63;;
17310;SDS011;8773;43.300;0.394;2023-04-01T05:03:14;13.23;;;4.27;;
17310;SDS011;8773;43.300;0.394;2023-04-01T05:05:47;14.93;;;4.70;;
17310;SDS011;8773;43.300;0.394;2023-04-01T05:08:17;13.97;;;4.40;;
17310;SDS011;8773;43.300;0.394;2023-04-01T05:10:46;19.00;;;4.90;;
17310;SDS011;8773;43.300;0.394;2023-04-01T05:13:15;10.10;;;3.73;;
17310;SDS011;8773;43.300;0.394;2023-04-01T05:15:43;23.17;;;5.90;;
17310;SDS011;8773;43.300;0.394;2023-04-01T05:18:11;14.87;;;4.93;;
17310;SDS011;8773;43.300;0.394;2023-04-01T05:20:39;22.40;;;5.50;;
17310;SDS011;8773;43.300;0.394;2023-04-01T05:23:07;19.03;;;4.50;;
17310;SDS011;8773;43.300;0.394;2023-04-01T05:25:37;15.67;;;5.03;;
17310;SDS011;8773;43.300;0.394;2023-04-01T05:28:06;21.90;;;5.53;;
17310;SDS011;8773;43.300;0.394;2023-04-01T05:30:34;21.63;;;5.00;;
17310;SDS011;8773;43.300;0.394;2023-04-01T05:33:02;15.70;;;4.10;;
17310;SDS011;8773;43.300;0.394;2023-04-01T05:35:33;11.73;;;4.70;;
17310;SDS011;8773;43.300;0.394;2023-04-01T05:38:02;18.10;;;4.47;;
17310;SDS011;8773;43.300;0.394;2023-04-01T05:40:30;17.20;;;4.77;;
17310;SDS011;8773;43.300;0.394;2023-04-01T05:42:59;17.77;;;4.90;;
17310;SDS011;8773;43.300;0.394;2023-04-01T05:45:29;17.30;;;4.57;;
17310;SDS011;8773;43.300;0.394;2023-04-01T05:47:58;14.97;;;4.97;;
17310;SDS011;8773;43.300;0.394;2023-04-01T05:50:27;15.20;;;4.37;;
17310;SDS011;8773;43.300;0.394;2023-04-01T05:52:55;19.17;;;4.63;;
17310;SDS011;8773;43.300;0.394;2023-04-01T05:55:23;16.23;;;5.47;;
17310;SDS011;8773;43.300;0.394;2023-04-01T05:57:51;13.23;;;5.20;;
17310;SDS011;8773;43.300;0.394;2023-04-01T06:00:19;15.43;;;4.90;;
17310;SDS011;8773;43.300;0.394;2023-04-01T06:02:48;16.80;;;5.23;;
17310;SDS011;8773;43.300;0.394;2023-04-01T06:05:19;14.93;;;4.60;;
17310;SDS011;8773;43.300;0.394;2023-04-01T06:07:49;13.13;;;4.60;;
17310;SDS011;8773;43.300;0.394;2023-04-01T06:10:19;17.97;;;4.83;;
17310;SDS011;8773;43.300;0.394;2023-04-01T06:12:51;18.37;;;4.80;;
17310;SDS011;8773;43.300;0.394;2023-04-01T06:15:32;18.00;;;4.97;;
17310;SDS011;8773;43.300;0.394;2023-04-01T06:21:07;11.97;;;4.00;;
17310;SDS011;8773;43.300;0.394;2023-04-01T06:23:52;15.30;;;4.37;;
17310;SDS011;8773;43.300;0.394;2023-04-01T06:26:30;13.57;;;4.00;;
17310;SDS011;8773;43.300;0.394;2023-04-01T06:29:06;22.20;;;5.33;;
17310;SDS011;8773;43.300;0.394;2023-04-01T06:32:06;20.63;;;4.50;;
17310;SDS011;8773;43.300;0.394;2023-04-01T06:34:52;17.77;;;4.63;;
17310;SDS011;8773;43.300;0.394;2023-04-01T06:37:48;14.83;;;4.50;;
17310;SDS011;8773;43.300;0.394;2023-04-01T06:40:34;15.37;;;5.00;;
17310;SDS011;8773;43.300;0.394;2023-04-01T06:43:21;20.03;;;5.17;;
17310;SDS011;8773;43.300;0.394;2023-04-01T06:45:58;19.33;;;5.40;;
17310;SDS011;8773;43.300;0.394;2023-04-01T06:48:38;17.93;;;4.77;;
17310;SDS011;8773;43.300;0.394;2023-04-01T06:51:20;16.53;;;4.50;;
17310;SDS011;8773;43.300;0.394;2023-04-01T06:54:00;13.90;;;4.57;;
17310;SDS011;8773;43.300;0.394;2023-04-01T06:56:32;16.53;;;4.50;;
17310;SDS011;8773;43.300;0.394;2023-04-01T06:59:04;17.53;;;4.77;;
17310;SDS011;8773;43.300;0.394;2023-04-01T07:01:35;16.93;;;5.07;;
17310;SDS011;8773;43.300;0.394;2023-04-01T07:04:09;19.10;;;4.90;;
17310;SDS011;8773;43.300;0.394;2023-04-01T07:06:42;19.07;;;5.07;;
17310;SDS011;8773;43.300;0.394;2023-04-01T07:09:16;14.63;;;4.77;;
17310;SDS011;8773;43.300;0.394;2023-04-01T07:11:47;14.77;;;4.53;;
17310;SDS011;8773;43.300;0.394;2023-04-01T07:14:19;16.77;;;5.17;;
17310;SDS011;8773;43.300;0.394;2023-04-01T07:16:54;14.00;;;4.70;;
17310;SDS011;8773;43.300;0.394;2023-04-01T07:19:29;13.90;;;5.00;;
17310;SDS011;8773;43.300;0.394;2023-04-01T07:22:04;18.33;;;4.53;;
17310;SDS011;8773;43.300;0.394;2023-04-01T07:24:41;14.57;;;4.20;;
17310;SDS011;8773;43.300;0.394;2023-04-01T07:27:12;12.60;;;4.93;;
17310;SDS011;8773;43.300;0.394;2023-04-01T07:29:41;15.13;;;4.47;;
17310;SDS011;8773;43.300;0.394;2023-04-01T07:32:12;18.07;;;4.67;;
17310;SDS011;8773;43.300;0.394;2023-04-01T07:34:54;14.20;;;4.23;;
17310;SDS011;8773;43.300;0.394;2023-04-01T07:37:30;13.60;;;4.47;;
17310;SDS011;8773;43.300;0.394;2023-04-01T07:40:09;16.57;;;4.43;;
17310;SDS011;8773;43.300;0.394;2023-04-01T07:42:54;12.30;;;4.13;;
17310;SDS011;8773;43.300;0.394;2023-04-01T07:45:37;14.13;;;4.03;;
17310;SDS011;8773;43.300;0.394;2023-04-01T07:48:15;10.87;;;3.53;;
17310;SDS011;8773;43.300;0.394;2023-04-01T07:50:51;10.93;;;3.33;;
17310;SDS011;8773;43.300;0.394;2023-04-01T07:53:27;11.30;;;3.90;;
17310;SDS011;8773;43.300;0.394;2023-04-01T07:56:03;13.13;;;4.37;;
17310;SDS011;8773;43.300;0.394;2023-04-01T07:58:37;13.03;;;4.00;;
17310;SDS011;8773;43.300;0.394;2023-04-01T08:01:18;13.17;;;4.47;;
17310;SDS011;8773;43.300;0.394;2023-04-01T08:03:57;14.70;;;4.20;;
17310;SDS011;8773;43.300;0.394;2023-04-01T08:06:50;12.97;;;4.17;;
17310;SDS011;8773;43.300;0.394;2023-04-01T08:09:29;14.80;;;4.23;;
17310;SDS011;8773;43.300;0.394;2023-04-01T08:12:08;10.27;;;3.50;;
17310;SDS011;8773;43.300;0.394;2023-04-01T08:14:49;17.47;;;5.03;;
17310;SDS011;8773;43.300;0.394;2023-04-01T08:17:26;11.10;;;3.97;;
17310;SDS011;8773;43.300;0.394;2023-04-01T08:20:05;15.90;;;4.40;;
17310;SDS011;8773;43.300;0.394;2023-04-01T08:22:42;14.03;;;4.40;;
17310;SDS011;8773;43.300;0.394;2023-04-01T08:25:19;17.30;;;4.43;;
17310;SDS011;8773;43.300;0.394;2023-04-01T08:27:53;15.60;;;4.70;;
17310;SDS011;8773;43.300;0.394;2023-04-01T08:30:25;12.03;;;3.83;;
17310;SDS011;8773;43.300;0.394;2023-04-01T08:32:58;10.83;;;3.80;;
17310;SDS011;8773;43.300;0.394;2023-04-01T08:35:34;11.30;;;3.53;;
17310;SDS011;8773;43.300;0.394;2023-04-01T08:38:07;9.83;;;3.27;;
17310;SDS011;8773;43.300;0.394;2023-04-01T08:40:51;10.80;;;3.70;;
17310;SDS011;8773;43.300;0.394;2023-04-01T08:43:28;11.13;;;3.73;;
17310;SDS011;8773;43.300;0.394;2023-04-01T08:46:23;11.43;;;5.07;;
17310;SDS011;8773;43.300;0.394;2023-04-01T08:52:07;11.77;;;3.47;;
17310;SDS011;8773;43.300;0.394;2023-04-01T08:54:57;12.73;;;3.30;;
17310;SDS011;8773;43.300;0.394;2023-04-01T08:57:49;10.70;;;3.30;;
17310;SDS011;8773;43.300;0.394;2023-04-01T09:00:30;14.43;;;3.73;;
17310;SDS011;8773;43.300;0.394;2023-04-01T09:03:10;6.63;;;2.93;;
17310;SDS011;8773;43.300;0.394;2023-04-01T09:05:59;4.83;;;2.17;;
17310;SDS011;8773;43.300;0.394;2023-04-01T09:08:51;7.27;;;2.73;;
17310;SDS011;8773;43.300;0.394;2023-04-01T09:11:33;6.93;;;2.87;;
17310;SDS011;8773;43.300;0.394;2023-04-01T09:14:22;5.43;;;2.77;;
17310;SDS011;8773;43.300;0.394;2023-04-01T09:20:17;8.73;;;2.63;;
17310;SDS011;8773;43.300;0.394;2023-04-01T09:23:02;5.90;;;2.70;;
17310;SDS011;8773;43.300;0.394;2023-04-01T09:25:53;5.23;;;2.50;;
17310;SDS011;8773;43.300;0.394;2023-04-01T09:28:33;5.20;;;2.53;;
17310;SDS011;8773;43.300;0.394;2023-04-01T09:31:19;3.83;;;2.03;;
17310;SDS011;8773;43.300;0.394;2023-04-01T09:34:07;4.63;;;2.40;;
17310;SDS011;8773;43.300;0.394;2023-04-01T09:36:54;4.67;;;2.50;;
17310;SDS011;8773;43.300;0.394;2023-04-01T09:39:47;4.67;;;2.33;;
17310;SDS011;8773;43.300;0.394;2023-04-01T09:45:19;3.20;;;1.87;;
17310;SDS011;8773;43.300;0.394;2023-04-01T09:48:07;4.20;;;2.20;;
17310;SDS011;8773;43.300;0.394;2023-04-01T09:50:43;3.97;;;1.70;;
17310;SDS011;8773;43.300;0.394;2023-04-01T09:53:25;3.93;;;2.40;;
17310;SDS011;8773;43.300;0.394;2023-04-01T09:59:43;4.00;;;2.20;;
17310;SDS011;8773;43.300;0.394;2023-04-01T10:02:27;4.87;;;2.00;;
17310;SDS011;8773;43.300;0.394;2023-04-01T10:11:47;5.50;;;2.40;;
17310;SDS011;8773;43.300;0.394;2023-04-01T10:14:55;4.83;;;2.50;;
17310;SDS011;8773;43.300;0.394;2023-04-01T10:17:56;5.77;;;2.37;;
17310;SDS011;8773;43.300;0.394;2023-04-01T10:20:46;6.07;;;2.70;;
17310;SDS011;8773;43.300;0.394;2023-04-01T10:23:38;5.47;;;2.40;;
17310;SDS011;8773;43.300;0.394;2023-04-01T10:26:25;5.33;;;2.40;;
17310;SDS011;8773;43.300;0.394;2023-04-01T10:35:35;5.50;;;2.40;;
17310;SDS011;8773;43.300;0.394;2023-04-01T10:38:30;3.23;;;2.60;;
17310;SDS011;8773;43.300;0.394;2023-04-01T10:41:36;6.73;;;2.40;;
17310;SDS011;8773;43.300;0.394;2023-04-01T10:44:36;2.20;;;1.60;;
17310;SDS011;8773;43.300;0.394;2023-04-01T10:53:46;1.87;;;1.30;;
17310;SDS011;8773;43.300;0.394;2023-04-01T10:56:36;1.50;;;1.40;;
17310;SDS011;8773;43.300;0.394;2023-04-01T11:12:11;2.33;;;1.70;;
17310;SDS011;8773;43.300;0.394;2023-04-01T11:15:15;2.30;;;1.60;;
17310;SDS011;8773;43.300;0.394;2023-04-01T11:24:25;2.77;;;1.53;;
17310;SDS011;8773;43.300;0.394;2023-04-01T11:27:08;2.50;;;1.63;;
17310;SDS011;8773;43.300;0.394;2023-04-01T11:32:46;2.57;;;1.67;;
17310;SDS011;8773;43.300;0.394;2023-04-01T11:38:37;2.23;;;1.40;;
17310;SDS011;8773;43.300;0.394;2023-04-01T11:41:19;1.53;;;1.33;;
17310;SDS011;8773;43.300;0.394;2023-04-01T11:44:04;1.90;;;1.30;;
17310;SDS011;8773;43.300;0.394;2023-04-01T11:46:46;3.77;;;1.70;;
17310;SDS011;8773;43.300;0.394;2023-04-01T11:49:29;3.63;;;1.93;;
17310;SDS011;8773;43.300;0.394;2023-04-01T11:52:21;2.70;;;2.00;;
17310;SDS011;8773;43.300;0.394;2023-04-01T11:55:09;4.90;;;1.83;;
17310;SDS011;8773;43.300;0.394;2023-04-01T11:57:51;2.60;;;1.70;;
17310;SDS011;8773;43.300;0.394;2023-04-01T12:00:35;4.47;;;1.60;;
17310;SDS011;8773;43.300;0.394;2023-04-01T12:03:28;4.13;;;1.70;;
17310;SDS011;8773;43.300;0.394;2023-04-01T12:06:14;3.67;;;1.40;;
17310;SDS011;8773;43.300;0.394;2023-04-01T12:08:50;4.03;;;1.40;;
17310;SDS011;8773;43.300;0.394;2023-04-01T12:11:29;1.37;;;1.10;;
17310;SDS011;8773;43.300;0.394;2023-04-01T12:14:04;3.10;;;1.70;;
17310;SDS011;8773;43.300;0.394;2023-04-01T12:16:51;7.47;;;3.03;;
17310;SDS011;8773;43.300;0.394;2023-04-01T12:19:28;2.50;;;1.40;;
17310;SDS011;8773;43.300;0.394;2023-04-01T12:22:12;1.83;;;1.40;;
17310;SDS011;8773;43.300;0.394;2023-04-01T12:24:52;1.97;;;1.20;;
17310;SDS011;8773;43.300;0.394;2023-04-01T12:27:35;1.40;;;1.30;;
17310;SDS011;8773;43.300;0.394;2023-04-01T12:33:10;1.57;;;1.47;;
17310;SDS011;8773;43.300;0.394;2023-04-01T12:35:55;1.87;;;1.50;;
17310;SDS011;8773;43.300;0.394;2023-04-01T12:38:31;2.30;;;1.43;;
17310;SDS011;8773;43.300;0.394;2023-04-01T12:41:09;2.03;;;1.43;;
17310;SDS011;8773;43.300;0.394;2023-04-01T12:43:54;1.70;;;1.50;;
17310;SDS011;8773;43.300;0.394;2023-04-01T12:46:40;2.27;;;1.40;;
17310;SDS011;8773;43.300;0.394;2023-04-01T12:49:24;2.50;;;1.30;;
17310;SDS011;8773;43.300;0.394;2023-04-01T12:52:09;1.90;;;1.60;;
17310;SDS011;8773;43.300;0.394;2023-04-01T12:55:00;1.73;;;1.60;;
17310;SDS011;8773;43.300;0.394;2023-04-01T12:57:57;1.67;;;1.50;;
17310;SDS011;8773;43.300;0.394;2023-04-01T13:00:59;1.80;;;1.70;;
17310;SDS011;8773;43.300;0.394;2023-04-01T13:03:44;3.80;;;1.50;;
17310;SDS011;8773;43.300;0.394;2023-04-01T13:06:30;2.63;;;1.50;;
17310;SDS011;8773;43.300;0.394;2023-04-01T13:09:11;2.87;;;1.77;;
17310;SDS011;8773;43.300;0.394;2023-04-01T13:12:00;1.53;;;1.40;;
17310;SDS011;8773;43.300;0.394;2023-04-01T13:14:57;1.77;;;1.60;;
17310;SDS011;8773;43.300;0.394;2023-04-01T13:17:42;1.97;;;1.30;;
17310;SDS011;8773;43.300;0.394;2023-04-01T13:20:20;1.80;;;1.40;;
17310;SDS011;8773;43.300;0.394;2023-04-01T13:23:04;2.23;;;1.60;;
17310;SDS011;8773;43.300;0.394;2023-04-01T13:25:39;1.53;;;1.10;;
17310;SDS011;8773;43.300;0.394;2023-04-01T13:28:23;2.33;;;1.40;;
17310;SDS011;8773;43.300;0.394;2023-04-01T13:30:55;3.27;;;1.70;;
17310;SDS011;8773;43.300;0.394;2023-04-01T13:33:35;2.83;;;1.63;;
17310;SDS011;8773;43.300;0.394;2023-04-01T13:36:11;2.20;;;1.40;;
17310;SDS011;8773;43.300;0.394;2023-04-01T13:39:00;2.07;;;1.50;;
17310;SDS011;8773;43.300;0.394;2023-04-01T13:41:45;3.87;;;1.77;;
17310;SDS011;8773;43.300;0.394;2023-04-01T13:44:25;2.80;;;1.87;;
17310;SDS011;8773;43.300;0.394;2023-04-01T13:50:22;4.80;;;2.30;;
17310;SDS011;8773;43.300;0.394;2023-04-01T13:53:09;2.83;;;1.60;;
17310;SDS011;8773;43.300;0.394;2023-04-01T13:55:55;2.67;;;1.57;;
17310;SDS011;8773;43.300;0.394;2023-04-01T13:58:38;4.07;;;1.97;;
17310;SDS011;8773;43.300;0.394;2023-04-01T14:01:15;4.23;;;2.37;;
17310;SDS011;8773;43.300;0.394;2023-04-01T14:04:11;7.63;;;2.33;;
17310;SDS011;8773;43.300;0.394;2023-04-01T14:06:57;4.47;;;1.90;;
17310;SDS011;8773;43.300;0.394;2023-04-01T14:09:39;3.00;;;1.60;;
17310;SDS011;8773;43.300;0.394;2023-04-01T14:12:31;2.13;;;1.80;;
17310;SDS011;8773;43.300;0.394;2023-04-01T14:15:19;5.50;;;1.80;;
17310;SDS011;8773;43.300;0.394;2023-04-01T14:18:01;6.07;;;2.27;;
17310;SDS011;8773;43.300;0.394;2023-04-01T14:20:39;2.80;;;1.80;;
17310;SDS011;8773;43.300;0.394;2023-04-01T14:29:26;3.13;;;1.80;;
17310;SDS011;8773;43.300;0.394;2023-04-01T14:32:06;2.40;;;1.50;;
17310;SDS011;8773;43.300;0.394;2023-04-01T14:34:44;2.50;;;1.40;;
17310;SDS011;8773;43.300;0.394;2023-04-01T14:37:40;1.73;;;1.13;;
17310;SDS011;8773;43.300;0.394;2023-04-01T14:40:37;2.67;;;1.20;;
17310;SDS011;8773;43.300;0.394;2023-04-01T14:49:32;2.13;;;1.30;;
17310;SDS011;8773;43.300;0.394;2023-04-01T14:52:04;1.20;;;1.10;;
17310;SDS011;8773;43.300;0.394;2023-04-01T14:54:37;1.97;;;1.60;;
17310;SDS011;8773;43.300;0.394;2023-04-01T14:57:11;4.60;;;1.70;;
17310;SDS011;8773;43.300;0.394;2023-04-01T14:59:41;2.73;;;1.67;;
17310;SDS011;8773;43.300;0.394;2023-04-01T15:05:10;2.23;;;1.60;;
17310;SDS011;8773;43.300;0.394;2023-04-01T15:11:00;3.73;;;2.20;;
17310;SDS011;8773;43.300;0.394;2023-04-01T15:16:53;3.83;;;2.03;;
17310;SDS011;8773;43.300;0.394;2023-04-01T15:19:31;2.63;;;2.00;;
17310;SDS011;8773;43.300;0.394;2023-04-01T15:22:18;3.53;;;1.80;;
17310;SDS011;8773;43.300;0.394;2023-04-01T15:25:05;2.47;;;1.67;;
17310;SDS011;8773;43.300;0.394;2023-04-01T15:27:56;2.77;;;1.80;;
17310;SDS011;8773;43.300;0.394;2023-04-01T15:30:33;3.80;;;1.83;;
17310;SDS011;8773;43.300;0.394;2023-04-01T15:33:13;2.83;;;1.87;;
17310;SDS011;8773;43.300;0.394;2023-04-01T15:36:01;2.60;;;1.83;;
17310;SDS011;8773;43.300;0.394;2023-04-01T15:38:38;2.37;;;1.77;;
17310;SDS011;8773;43.300;0.394;2023-04-01T15:41:14;3.10;;;2.30;;
17310;SDS011;8773;43.300;0.394;2023-04-01T15:43:44;3.70;;;1.70;;
17310;SDS011;8773;43.300;0.394;2023-04-01T15:46:19;2.67;;;1.80;;
17310;SDS011;8773;43.300;0.394;2023-04-01T15:49:06;5.07;;;2.10;;
17310;SDS011;8773;43.300;0.394;2023-04-01T15:51:53;2.90;;;1.87;;
17310;SDS011;8773;43.300;0.394;2023-04-01T15:54:28;4.47;;;2.10;;
17310;SDS011;8773;43.300;0.394;2023-04-01T15:57:17;3.83;;;1.97;;
17310;SDS011;8773;43.300;0.394;2023-04-01T16:00:06;5.13;;;1.90;;
17310;SDS011;8773;43.300;0.394;2023-04-01T16:02:43;4.10;;;1.97;;
17310;SDS011;8773;43.300;0.394;2023-04-01T16:05:22;5.50;;;2.60;;
17310;SDS011;8773;43.300;0.394;2023-04-01T16:07:57;4.30;;;1.93;;
17310;SDS011;8773;43.300;0.394;2023-04-01T16:10:51;4.77;;;2.20;;
17310;SDS011;8773;43.300;0.394;2023-04-01T16:13:29;4.37;;;2.07;;
17310;SDS011;8773;43.300;0.394;2023-04-01T16:16:07;5.20;;;2.07;;
17310;SDS011;8773;43.300;0.394;2023-04-01T16:18:49;5.47;;;1.70;;
17310;SDS011;8773;43.300;0.394;2023-04-01T16:21:43;3.93;;;1.90;;
17310;SDS011;8773;43.300;0.394;2023-04-01T16:24:17;4.03;;;1.97;;
17310;SDS011;8773;43.300;0.394;2023-04-01T16:26:55;2.57;;;1.80;;
17310;SDS011;8773;43.300;0.394;2023-04-01T16:29:29;3.57;;;1.60;;
17310;SDS011;8773;43.300;0.394;2023-04-01T16:32:11;4.27;;;1.80;;
17310;SDS011;8773;43.300;0.394;2023-04-01T16:34:54;4.10;;;2.27;;
17310;SDS011;8773;43.300;0.394;2023-04-01T16:37:32;3.90;;;1.93;;
17310;SDS011;8773;43.300;0.394;2023-04-01T16:40:10;3.57;;;1.87;;
17310;SDS011;8773;43.300;0.394;2023-04-01T16:42:46;2.33;;;1.57;;
17310;SDS011;8773;43.300;0.394;2023-04-01T16:45:24;2.70;;;1.73;;
17310;SDS011;8773;43.300;0.394;2023-04-01T16:48:05;4.10;;;1.90;;
17310;SDS011;8773;43.300;0.394;2023-04-01T16:50:42;2.83;;;1.70;;
17310;SDS011;8773;43.300;0.394;2023-04-01T16:53:19;2.57;;;1.30;;
17310;SDS011;8773;43.300;0.394;2023-04-01T16:56:02;2.13;;;1.50;;
17310;SDS011;8773;43.300;0.394;2023-04-01T16:58:39;2.47;;;1.50;;
17310;SDS011;8773;43.300;0.394;2023-04-01T17:01:11;2.10;;;1.50;;
17310;SDS011;8773;43.300;0.394;2023-04-01T17:03:44;1.73;;;1.43;;
17310;SDS011;8773;43.300;0.394;2023-04-01T17:06:17;2.27;;;1.50;;
17310;SDS011;8773;43.300;0.394;2023-04-01T17:08:58;4.70;;;2.63;;
17310;SDS011;8773;43.300;0.394;2023-04-01T17:11:37;3.17;;;1.80;;
17310;SDS011;8773;43.300;0.394;2023-04-01T17:14:16;4.73;;;1.90;;
17310;SDS011;8773;43.300;0.394;2023-04-01T17:16:54;3.10;;;2.07;;
17310;SDS011;8773;43.300;0.394;2023-04-01T17:19:42;3.10;;;1.77;;
17310;SDS011;8773;43.300;0.394;2023-04-01T17:22:21;2.20;;;1.60;;
17310;SDS011;8773;43.300;0.394;2023-04-01T17:25:02;2.53;;;1.70;;
17310;SDS011;8773;43.300;0.394;2023-04-01T17:27:48;2.00;;;1.90;;